Time;durP1;ratioP1;P1;durP2;ratioP2;P2;SDS_P1;SDS_P2;PMS_P1;PMS_P2;Temp;Humidity;BMP_temperature;BMP_pressure;BME280_temperature;BME280_humidity;BME280_pressure;Samples;Min_cycle;Max_cycle;Signal;HPM_P1;HPM_P2
2022/04/29 00:00:16;;;;;;;;;;;;;;;4.32;60.49;99749.40;108034;1279;22519;-76
2022/04/29 00:02:44;;;;;;;;;;;;;;;4.23;60.67;99744.59;108037;1279;23021;-73
2022/04/29 00:05:11;;;;;;;;;;;;;;;4.17;61.27;99744.22;108047;1279;22719;-73
2022/04/29 00:07:39;;;;;;;;;;;;;;;4.13;60.20;99742.91;108040;1279;23711;-70
2022/04/29 00:10:13;;;;;;;;;;;;;;;4.09;60.41;99745.07;108012;1279;25191;-72
2022/04/29 00:12:46;;;;;;;;;;;;;;;4.06;61.57;99743.05;108056;1279;22540;-71
2022/04/29 00:15:14;;;;;;;;;;;;;;;4.03;60.50;99741.56;108064;1279;22677;-70
2022/04/29 00:17:42;;;;;;;;;;;;;;;4.00;60.23;99739.58;108058;1279;22539;-71
2022/04/29 00:20:09;;;;;;;;;;;;;;;3.98;59.91;99740.13;108018;1279;22594;-70
2022/04/29 00:22:36;;;;;;;;;;;;;;;3.97;59.93;99739.11;108058;1279;22848;-70
2022/04/29 00:25:04;;;;;;;;;;;;;;;3.95;60.52;99739.66;108010;1279;22552;-71
2022/04/29 00:27:31;;;;;;;;;;;;;;;3.94;61.61;99739.36;108045;1279;22641;-69
2022/04/29 00:29:58;;;;;;;;;;;;;;;3.91;62.23;99740.46;108058;1279;22521;-69
2022/04/29 00:32:25;;;;;;;;;;;;;;;3.88;62.52;99739.48;108044;1279;22605;-70
2022/04/29 00:34:52;;;;;;;;;;;;;;;3.84;62.49;99741.30;108006;1278;22519;-69
2022/04/29 00:37:18;;;;;;;;;;;;;;;3.80;62.15;99741.54;108045;1279;22532;-70
2022/04/29 00:39:45;;;;;;;;;;;;;;;3.76;61.87;99742.12;108038;1279;22527;-71
2022/04/29 00:42:17;;;;;;;;;;;;;;;3.72;61.84;99739.11;108051;1279;22543;-74
2022/04/29 00:44:44;;;;;;;;;;;;;;;3.68;61.70;99738.67;108035;1279;24080;-70
2022/04/29 00:47:13;;;;;;;;;;;;;;;3.64;61.81;99739.45;108012;1279;22671;-70
2022/04/29 00:49:39;;;;;;;;;;;;;;;3.64;61.68;99736.88;108022;1279;22600;-69
2022/04/29 00:52:08;;;;;;;;;;;;;;;3.63;62.25;99739.13;108029;1279;23185;-69
2022/04/29 00:54:36;;;;;;;;;;;;;;;3.62;63.25;99740.68;108011;1279;26189;-69
2022/04/29 00:57:07;;;;;;;;;;;;;;;3.59;63.79;99741.43;108034;1279;22687;-70
2022/04/29 00:59:38;;;;;;;;;;;;;;;3.56;63.78;99739.77;108032;1279;22691;-71
2022/04/29 01:02:07;;;;;;;;;;;;;;;3.53;63.59;99739.48;108032;1279;22541;-70
2022/04/29 01:04:41;;;;;;;;;;;;;;;3.50;63.49;99738.33;108008;1278;22587;-69
2022/04/29 01:07:08;;;;;;;;;;;;;;;3.48;63.82;99736.31;108030;1279;22615;-70
2022/04/29 01:09:34;;;;;;;;;;;;;;;3.45;63.43;99732.57;108045;1279;22544;-70
2022/04/29 01:12:01;;;;;;;;;;;;;;;3.43;63.11;99734.52;108026;1279;22521;-70
2022/04/29 01:14:29;;;;;;;;;;;;;;;3.37;63.23;99731.18;108034;1279;22540;-74
2022/04/29 01:16:58;;;;;;;;;;;;;;;3.33;62.78;99731.41;108026;1279;22541;-70
2022/04/29 01:19:25;;;;;;;;;;;;;;;3.29;62.47;99729.45;108040;1279;22540;-70
2022/04/29 01:21:52;;;;;;;;;;;;;;;3.25;63.20;99730.71;108064;1279;23473;-70
2022/04/29 01:24:19;;;;;;;;;;;;;;;3.25;63.14;99728.64;108006;1279;22664;-69
2022/04/29 01:26:46;;;;;;;;;;;;;;;3.27;63.04;99730.16;108028;1279;23457;-73
2022/04/29 01:29:13;;;;;;;;;;;;;;;3.28;63.45;99729.45;108038;1279;22606;-70
2022/04/29 01:31:40;;;;;;;;;;;;;;;3.30;64.14;99727.71;108044;1279;22559;-70
2022/04/29 01:34:07;;;;;;;;;;;;;;;3.27;64.67;99726.54;108012;1279;22546;-75
2022/04/29 01:36:34;;;;;;;;;;;;;;;3.24;65.01;99725.04;108062;1279;24445;-69
2022/04/29 01:39:01;;;;;;;;;;;;;;;3.23;64.80;99724.03;108019;1279;23089;-69
2022/04/29 01:41:28;;;;;;;;;;;;;;;3.22;64.46;99720.60;108018;1279;22531;-70
2022/04/29 01:43:54;;;;;;;;;;;;;;;3.21;64.11;99717.02;108031;1279;22600;-70
2022/04/29 01:46:21;;;;;;;;;;;;;;;3.21;64.19;99716.34;108030;1279;22703;-71
2022/04/29 01:48:48;;;;;;;;;;;;;;;3.22;63.77;99712.02;108048;1279;22538;-70
2022/04/29 01:51:15;;;;;;;;;;;;;;;3.22;63.64;99714.58;108026;1279;22589;-71
2022/04/29 01:53:42;;;;;;;;;;;;;;;3.23;64.46;99713.52;108197;1279;22643;-73
2022/04/29 01:56:09;;;;;;;;;;;;;;;3.28;63.99;99712.41;108031;1279;22820;-70
2022/04/29 01:58:37;;;;;;;;;;;;;;;3.34;63.89;99714.01;108058;1279;24415;-72
2022/04/29 02:01:04;;;;;;;;;;;;;;;3.39;64.60;99711.52;107892;1279;260346;-70
2022/04/29 02:03:31;;;;;;;;;;;;;;;3.44;66.11;99716.42;108015;1279;23437;-70
2022/04/29 02:05:58;;;;;;;;;;;;;;;3.42;66.66;99711.62;108035;1279;22760;-70
2022/04/29 02:08:25;;;;;;;;;;;;;;;3.40;66.89;99709.23;107945;1279;22528;-74
2022/04/29 02:10:52;;;;;;;;;;;;;;;3.42;66.29;99709.73;108050;1279;22693;-70
2022/04/29 02:13:18;;;;;;;;;;;;;;;3.42;66.64;99708.69;108025;1279;26017;-70
2022/04/29 02:15:46;;;;;;;;;;;;;;;3.44;65.82;99709.02;108169;1279;22595;-70
2022/04/29 02:18:13;;;;;;;;;;;;;;;3.46;66.09;99715.86;108018;1279;23382;-70
2022/04/29 02:20:39;;;;;;;;;;;;;;;3.43;66.11;99718.66;108049;1279;22697;-70
2022/04/29 02:23:06;;;;;;;;;;;;;;;3.44;66.35;99711.08;108081;1278;22589;-71
2022/04/29 02:25:33;;;;;;;;;;;;;;;3.44;66.92;99716.40;108060;1279;22683;-73
2022/04/29 02:28:00;;;;;;;;;;;;;;;3.44;67.78;99717.61;108041;1279;26594;-70
2022/04/29 02:30:27;;;;;;;;;;;;;;;3.44;67.77;99714.52;108041;1278;22682;-70
2022/04/29 02:32:54;;;;;;;;;;;;;;;3.47;67.84;99716.20;108066;1279;25498;-70
2022/04/29 02:35:21;;;;;;;;;;;;;;;3.49;67.22;99716.14;108033;1279;25368;-72
2022/04/29 02:37:48;;;;;;;;;;;;;;;3.54;67.15;99715.02;108012;1279;22532;-75
2022/04/29 02:40:15;;;;;;;;;;;;;;;3.52;67.33;99711.59;108011;1279;22521;-75
2022/04/29 02:42:41;;;;;;;;;;;;;;;3.50;67.17;99706.98;107966;1279;22677;-70
2022/04/29 02:45:09;;;;;;;;;;;;;;;3.50;66.86;99709.91;108072;1279;22539;-71
2022/04/29 02:47:36;;;;;;;;;;;;;;;3.51;67.02;99709.72;108023;1279;22600;-73
2022/04/29 02:50:03;;;;;;;;;;;;;;;3.50;67.73;99708.37;108049;1279;26556;-70
2022/04/29 02:52:30;;;;;;;;;;;;;;;3.50;68.19;99705.45;108038;1279;22703;-70
2022/04/29 02:54:57;;;;;;;;;;;;;;;3.50;68.82;99701.12;108035;1279;22518;-70
2022/04/29 02:57:24;;;;;;;;;;;;;;;3.51;68.54;99700.26;108057;1279;22527;-70
2022/04/29 02:59:50;;;;;;;;;;;;;;;3.53;68.73;99700.21;108186;1279;22538;-70
2022/04/29 03:02:17;;;;;;;;;;;;;;;3.57;68.21;99699.98;108336;1279;22540;-70
2022/04/29 03:04:44;;;;;;;;;;;;;;;3.60;67.67;99702.98;108302;1279;25397;-70
2022/04/29 03:07:11;;;;;;;;;;;;;;;3.63;67.30;99700.55;108308;1279;22859;-74
2022/04/29 03:09:38;;;;;;;;;;;;;;;3.65;67.26;99705.65;108069;1279;23169;-70
2022/04/29 03:12:06;;;;;;;;;;;;;;;3.71;67.27;99703.30;108028;1279;24474;-70
2022/04/29 03:14:32;;;;;;;;;;;;;;;3.76;67.85;99704.05;108053;1279;22557;-70
2022/04/29 03:16:59;;;;;;;;;;;;;;;3.81;68.54;99706.88;108067;1279;25132;-70
2022/04/29 03:19:26;;;;;;;;;;;;;;;3.84;68.82;99704.77;108037;1279;23095;-69
2022/04/29 03:21:53;;;;;;;;;;;;;;;3.86;69.01;99710.04;108004;1279;25268;-70
2022/04/29 03:24:20;;;;;;;;;;;;;;;3.86;68.69;99709.69;108045;1279;25183;-71
2022/04/29 03:26:46;;;;;;;;;;;;;;;3.87;68.49;99711.75;108066;1278;22600;-71
2022/04/29 03:29:14;;;;;;;;;;;;;;;3.87;68.33;99713.13;108051;1279;22531;-71
2022/04/29 03:31:41;;;;;;;;;;;;;;;3.88;68.43;99710.36;108027;1279;23084;-71
2022/04/29 03:34:08;;;;;;;;;;;;;;;3.90;68.14;99712.89;108038;1279;22581;-72
2022/04/29 03:36:34;;;;;;;;;;;;;;;3.93;68.56;99716.98;108055;1279;22678;-71
2022/04/29 03:39:02;;;;;;;;;;;;;;;3.94;69.49;99720.05;108056;1279;22607;-72
2022/04/29 03:41:29;;;;;;;;;;;;;;;3.93;69.86;99716.98;108054;1278;22552;-72
2022/04/29 03:43:56;;;;;;;;;;;;;;;3.93;69.82;99717.15;108048;1279;22600;-71
2022/04/29 03:46:23;;;;;;;;;;;;;;;3.95;69.63;99717.95;108022;1279;23107;-72
2022/04/29 03:51:35;;;;;;;;;;;;;;;4.04;69.13;99717.75;108037;1279;22630;-73
2022/04/29 03:54:02;;;;;;;;;;;;;;;4.09;68.82;99719.89;108032;1279;22597;-73
2022/04/29 03:56:29;;;;;;;;;;;;;;;4.18;68.98;99720.05;108032;1279;22600;-71
2022/04/29 03:58:56;;;;;;;;;;;;;;;4.26;69.08;99724.01;107985;1279;22750;-72
2022/04/29 04:01:23;;;;;;;;;;;;;;;4.33;69.81;99725.39;108043;1279;25229;-72
2022/04/29 04:03:50;;;;;;;;;;;;;;;4.40;70.47;99727.30;108062;1279;22696;-71
2022/04/29 04:09:02;;;;;;;;;;;;;;;4.50;70.22;99725.52;108002;1279;22569;-73
2022/04/29 04:11:29;;;;;;;;;;;;;;;4.57;69.90;99732.79;107985;1279;24230;-72
2022/04/29 04:13:56;;;;;;;;;;;;;;;4.62;69.91;99733.02;108019;1279;25239;-72
2022/04/29 04:16:24;;;;;;;;;;;;;;;4.67;69.87;99742.04;108046;1279;22540;-72
2022/04/29 04:18:51;;;;;;;;;;;;;;;4.69;70.36;99735.44;108285;1279;22594;-72
2022/04/29 04:21:17;;;;;;;;;;;;;;;4.73;69.73;99738.42;108006;1279;25177;-75
2022/04/29 04:23:44;;;;;;;;;;;;;;;4.79;69.39;99736.39;108043;1279;22698;-70
2022/04/29 04:26:11;;;;;;;;;;;;;;;4.86;69.81;99738.45;108011;1279;25270;-70
2022/04/29 04:28:38;;;;;;;;;;;;;;;4.92;70.39;99736.24;108073;1279;22629;-70
2022/04/29 04:31:05;;;;;;;;;;;;;;;4.98;70.71;99737.84;108053;1278;24385;-70
2022/04/29 04:33:32;;;;;;;;;;;;;;;5.05;70.48;99735.23;108020;1279;25315;-70
2022/04/29 04:36:00;;;;;;;;;;;;;;;5.13;70.22;99738.33;107993;1279;22683;-71
2022/04/29 04:38:26;;;;;;;;;;;;;;;5.21;69.84;99741.90;107999;1279;24239;-70
2022/04/29 04:40:55;;;;;;;;;;;;;;;5.28;69.76;99739.45;108028;1278;22645;-70
2022/04/29 04:43:23;;;;;;;;;;;;;;;5.38;70.36;99741.46;108054;1279;23810;-70
2022/04/29 04:45:50;;;;;;;;;;;;;;;5.48;69.25;99747.92;108035;1279;22634;-71
2022/04/29 04:48:18;;;;;;;;;;;;;;;5.55;69.76;99747.02;108022;1277;25329;-72
2022/04/29 04:50:45;;;;;;;;;;;;;;;5.64;69.58;99745.58;108030;1279;22641;-70
2022/04/29 04:53:12;;;;;;;;;;;;;;;5.74;68.96;99746.69;108061;1279;22682;-69
2022/04/29 04:55:39;;;;;;;;;;;;;;;5.85;68.69;99749.32;108067;1279;22674;-71
2022/04/29 04:58:08;;;;;;;;;;;;;;;5.99;68.85;99754.13;108033;1279;22560;-70
2022/04/29 05:00:36;;;;;;;;;;;;;;;6.09;69.49;99755.56;108016;1279;22519;-72
2022/04/29 05:03:05;;;;;;;;;;;;;;;6.20;69.72;99748.16;108027;1279;22534;-71
2022/04/29 05:05:32;;;;;;;;;;;;;;;6.31;70.03;99747.13;108038;1279;22522;-74
2022/04/29 05:07:59;;;;;;;;;;;;;;;6.44;70.22;99751.06;108090;1279;22534;-72
2022/04/29 05:10:26;;;;;;;;;;;;;;;6.54;69.70;99746.42;108036;1279;22656;-72
2022/04/29 05:12:53;;;;;;;;;;;;;;;6.66;69.74;99748.63;108029;1279;22587;-74
2022/04/29 05:15:20;;;;;;;;;;;;;;;6.79;69.41;99746.49;107933;1279;22540;-75
2022/04/29 05:17:46;;;;;;;;;;;;;;;6.93;69.06;99749.33;108017;1279;24388;-71
2022/04/29 05:20:15;;;;;;;;;;;;;;;7.06;68.79;99750.81;108050;1279;22597;-72
2022/04/29 05:22:44;;;;;;;;;;;;;;;7.20;68.65;99751.19;108024;1279;25288;-76
2022/04/29 05:25:10;;;;;;;;;;;;;;;7.31;68.51;99747.35;108023;1279;22532;-71
2022/04/29 05:27:37;;;;;;;;;;;;;;;7.43;68.33;99749.19;108018;1279;22521;-71
2022/04/29 05:30:05;;;;;;;;;;;;;;;7.55;68.16;99749.47;108027;1279;22690;-71
2022/04/29 05:32:31;;;;;;;;;;;;;;;7.65;67.83;99746.33;108021;1279;22539;-73
2022/04/29 05:34:59;;;;;;;;;;;;;;;7.75;67.62;99746.67;108041;1279;22521;-73
2022/04/29 05:37:27;;;;;;;;;;;;;;;7.85;67.45;99749.77;108025;1279;22532;-71
2022/04/29 05:42:40;;;;;;;;;;;;;;;8.08;67.17;99755.15;108048;1279;22632;-73
2022/04/29 05:45:07;;;;;;;;;;;;;;;8.22;66.48;99753.95;108078;1279;22685;-71
2022/04/29 05:47:34;;;;;;;;;;;;;;;8.42;66.77;99758.06;108049;1279;22749;-74
2022/04/29 05:50:01;;;;;;;;;;;;;;;8.61;66.22;99764.77;108052;1279;22658;-77
2022/04/29 05:52:28;;;;;;;;;;;;;;;8.80;66.01;99762.64;108033;1279;23481;-72
2022/04/29 05:54:55;;;;;;;;;;;;;;;8.98;65.41;99768.85;108048;1279;22651;-74
2022/04/29 05:57:22;;;;;;;;;;;;;;;9.11;65.31;99768.16;108065;1279;24311;-72
2022/04/29 05:59:50;;;;;;;;;;;;;;;9.25;65.09;99766.51;108057;1279;24221;-72
2022/04/29 06:02:17;;;;;;;;;;;;;;;9.37;65.01;99767.23;108043;1279;23367;-74
2022/04/29 06:04:44;;;;;;;;;;;;;;;9.50;64.76;99771.21;107999;1279;26094;-75
2022/04/29 06:07:11;;;;;;;;;;;;;;;9.57;64.20;99771.27;108023;1279;26041;-69
2022/04/29 06:09:38;;;;;;;;;;;;;;;9.62;64.17;99773.11;108048;1279;22646;-74
2022/04/29 06:12:05;;;;;;;;;;;;;;;9.69;63.69;99775.09;108046;1279;22551;-70
2022/04/29 06:14:32;;;;;;;;;;;;;;;9.77;63.44;99775.22;108044;1279;22655;-70
2022/04/29 06:16:59;;;;;;;;;;;;;;;9.90;63.27;99774.99;108048;1279;23911;-71
2022/04/29 06:19:25;;;;;;;;;;;;;;;10.00;62.90;99775.93;108055;1279;22554;-70
2022/04/29 06:21:52;;;;;;;;;;;;;;;10.15;62.78;99774.42;108018;1279;22662;-75
2022/04/29 06:24:19;;;;;;;;;;;;;;;10.30;62.24;99774.98;108054;1279;22551;-78
2022/04/29 06:26:47;;;;;;;;;;;;;;;10.46;62.06;99778.23;108016;1279;22658;-78
2022/04/29 06:29:14;;;;;;;;;;;;;;;10.62;61.74;99775.71;108026;1279;22523;-72
2022/04/29 06:31:41;;;;;;;;;;;;;;;10.81;61.52;99776.53;108210;1279;22632;-80
2022/04/29 06:34:07;;;;;;;;;;;;;;;11.00;61.21;99772.84;108273;1279;22527;-82
2022/04/29 06:36:34;;;;;;;;;;;;;;;11.07;60.54;99772.16;108191;1279;25239;-83
2022/04/29 06:39:01;;;;;;;;;;;;;;;11.14;60.30;99774.27;108279;1279;25922;-81
2022/04/29 06:41:28;;;;;;;;;;;;;;;11.22;60.01;99772.80;108302;1279;22537;-74
2022/04/29 06:43:55;;;;;;;;;;;;;;;11.33;59.40;99775.75;108298;1279;22654;-72
2022/04/29 06:46:24;;;;;;;;;;;;;;;11.44;59.14;99772.95;108296;1279;22678;-76
2022/04/29 06:48:55;;;;;;;;;;;;;;;11.52;58.88;99773.70;108307;1279;22698;-72
2022/04/29 06:51:23;;;;;;;;;;;;;;;11.65;57.97;99773.41;108313;1279;22598;-72
2022/04/29 06:53:50;;;;;;;;;;;;;;;11.81;57.82;99775.92;108332;1279;23907;-76
2022/04/29 06:56:17;;;;;;;;;;;;;;;11.94;56.81;99776.46;108326;1279;22521;-70
2022/04/29 06:58:44;;;;;;;;;;;;;;;12.11;57.19;99777.67;108329;1279;24390;-72
2022/04/29 07:01:11;;;;;;;;;;;;;;;12.27;56.94;99782.52;108335;1279;22510;-71
2022/04/29 07:03:41;;;;;;;;;;;;;;;12.47;57.07;99779.38;108301;1279;22547;-80
2022/04/29 07:06:07;;;;;;;;;;;;;;;12.65;56.68;99785.52;108299;1279;24228;-81
2022/04/29 07:08:34;;;;;;;;;;;;;;;12.85;56.24;99783.73;108329;1279;26594;-79
2022/04/29 07:11:02;;;;;;;;;;;;;;;13.05;55.49;99785.38;108313;1279;22547;-79
2022/04/29 07:13:29;;;;;;;;;;;;;;;13.25;54.16;99785.27;108293;1279;22699;-74
2022/04/29 07:15:55;;;;;;;;;;;;;;;13.48;53.79;99782.69;108324;1279;22678;-84
2022/04/29 07:18:22;;;;;;;;;;;;;;;13.76;52.71;99784.88;108299;1279;22598;-71
2022/04/29 07:20:49;;;;;;;;;;;;;;;14.04;50.31;99788.10;108305;1279;24445;-72
2022/04/29 07:23:16;;;;;;;;;;;;;;;14.25;49.47;99785.77;108314;1279;22547;-72
2022/04/29 07:25:43;;;;;;;;;;;;;;;14.51;47.50;99790.45;108304;1279;22541;-81
2022/04/29 07:28:10;;;;;;;;;;;;;;;14.57;46.98;99790.90;108305;1279;24386;-72
2022/04/29 07:30:37;;;;;;;;;;;;;;;14.69;46.98;99789.27;108318;1279;22577;-71
2022/04/29 07:33:04;;;;;;;;;;;;;;;14.77;47.40;99790.21;108302;1279;22542;-71
2022/04/29 07:43:47;;;;;;;;;;;;;;;14.89;46.56;99785.55;108329;1279;22591;-83
2022/04/29 07:46:16;;;;;;;;;;;;;;;14.91;45.13;99785.77;108300;1279;22589;-70
2022/04/29 07:48:44;;;;;;;;;;;;;;;14.88;43.58;99787.91;108289;1279;22609;-71
2022/04/29 07:51:10;;;;;;;;;;;;;;;14.76;42.14;99788.17;108306;1279;22551;-70
2022/04/29 07:53:37;;;;;;;;;;;;;;;14.65;41.93;99785.02;108323;1279;22535;-70
2022/04/29 07:56:05;;;;;;;;;;;;;;;14.66;42.38;99783.52;108284;1279;24229;-70
2022/04/29 07:58:32;;;;;;;;;;;;;;;14.71;42.84;99780.61;108103;1279;22548;-73
2022/04/29 08:00:59;;;;;;;;;;;;;;;14.75;41.56;99783.48;108032;1279;22542;-71
2022/04/29 08:03:26;;;;;;;;;;;;;;;14.73;41.27;99783.09;108007;1278;22685;-71
2022/04/29 08:05:52;;;;;;;;;;;;;;;14.79;41.12;99786.55;108022;1279;22532;-70
2022/04/29 08:08:19;;;;;;;;;;;;;;;14.81;41.01;99780.07;108001;1279;22529;-70
2022/04/29 08:10:47;;;;;;;;;;;;;;;14.87;39.90;99777.47;108061;1279;23032;-70
2022/04/29 08:13:14;;;;;;;;;;;;;;;15.01;39.88;99775.14;108030;1279;22586;-71
2022/04/29 08:15:44;;;;;;;;;;;;;;;15.16;39.40;99769.89;108016;1279;23145;-69
2022/04/29 08:18:12;;;;;;;;;;;;;;;15.37;39.69;99760.92;108075;1279;22590;-70
